Luxembourg

Airport
ICAO code: 
ELLX
Summary
ICAO Region: 
EUR
Territory: 
Location: 
Luxembourg,
Elevation: 
1234 ft
Coordinates: 
Aerial View: 
49° 37' 24" N, 6° 12' 16" E
Metar
Observation
ELLX 090520Z 26011KT 0400 R24/1200VP2000D FG BKN001 00/00 Q1004 NOSIG
Station
Luxembourg / Luxembourg
Date/Time
2021-12-09 05:20:00
Wind direction
260°
Wind speed
11 kts
Lowest cloud amount
broken clouds
Temperature
0°C
Dew point
0°C
Humidity
100%
QNH
1004 hPa
Weather condition
n/a

Description

International airport serving Luxembourg.

Climatology

Temperate Marine climate/Oceanic climate (Köppen climate classification Cfb). Moderately cool summer and comparatively warm winter with a temperature range of only 14°C. Prevailing south-westerly winds from the Atlantic Ocean.

Runways

Designator Length Width Surface Rops
6/24 4000 60 PEM Yes/Yes
Airport map: 
Aerial View: 

Accidents and Serious Incidents at or in the vicinity of ELLX

SKYbrary Partners:

Safety knowledge contributed by: